Time;durP1;ratioP1;P1;durP2;ratioP2;P2;SDS_P1;SDS_P2;PMS_P1;PMS_P2;Temp;Humidity;BMP_temperature;BMP_pressure;BME280_temperature;BME280_humidity;BME280_pressure;Samples;Min_cycle;Max_cycle;Signal;HPM_P1;HPM_P2
2023/08/26 00:00:39;;;;;;;8.50;3.50;;;;;;;20.72;56.20;99445.88;78940;1304;3012823;-66
2023/08/26 00:03:07;;;;;;;6.70;3.00;;;;;;;20.71;56.07;99445.61;77774;1306;3025032;-67
2023/08/26 00:05:33;;;;;;;9.90;3.40;;;;;;;20.71;56.06;99443.86;78970;1304;3021396;-63
2023/08/26 00:08:01;;;;;;;6.90;3.30;;;;;;;20.67;56.25;99439.80;78925;1304;3013540;-67
2023/08/26 00:10:29;;;;;;;6.50;3.30;;;;;;;20.66;56.34;99438.10;77772;1307;3025479;-63
2023/08/26 00:12:55;;;;;;;11.40;3.00;;;;;;;20.60;56.31;99440.81;78929;1306;3013745;-62
2023/08/26 00:15:22;;;;;;;8.90;3.10;;;;;;;20.58;56.23;99445.11;78897;1307;3011898;-65
2023/08/26 00:17:50;;;;;;;5.40;2.80;;;;;;;20.59;56.16;99445.95;77648;1307;3026011;-62
2023/08/26 00:20:21;;;;;;;7.00;3.10;;;;;;;20.57;56.12;99450.74;78945;1306;3019023;-66
2023/08/26 00:22:48;;;;;;;7.30;2.70;;;;;;;20.53;56.13;99452.23;77656;1307;3049651;-63
2023/08/26 00:25:15;;;;;;;5.60;2.90;;;;;;;20.50;55.95;99447.20;78873;1307;3013397;-66
2023/08/26 00:27:42;;;;;;;6.40;3.20;;;;;;;20.49;56.20;99443.74;78880;1304;3011739;-63
2023/08/26 00:30:10;;;;;;;7.60;2.90;;;;;;;20.45;56.13;99450.88;77663;1304;3028670;-63
2023/08/26 00:32:37;;;;;;;7.00;3.20;;;;;;;20.47;56.06;99453.02;78953;1307;3013487;-64
2023/08/26 00:35:04;;;;;;;6.80;2.70;;;;;;;20.47;56.29;99448.28;78877;1304;3011922;-65
2023/08/26 00:37:32;;;;;;;5.50;2.70;;;;;;;20.46;56.41;99448.84;77764;1307;3049515;-65
2023/08/26 00:39:59;;;;;;;7.70;3.00;;;;;;;20.40;56.77;99447.33;78951;1304;3013324;-63
2023/08/26 00:42:25;;;;;;;7.00;3.20;;;;;;;20.38;56.91;99445.20;78845;1307;3012556;-63
2023/08/26 00:44:53;;;;;;;7.50;3.30;;;;;;;20.36;57.12;99451.95;77658;1304;3025097;-65
2023/08/26 00:47:19;;;;;;;9.30;3.30;;;;;;;20.29;57.46;99455.56;78821;1307;3013129;-67
2023/08/26 00:49:46;;;;;;;10.70;3.40;;;;;;;20.24;57.82;99458.03;78959;1307;3011571;-66
2023/08/26 00:52:15;;;;;;;8.40;3.30;;;;;;;20.17;58.24;99456.24;77674;1307;3048646;-61
2023/08/26 00:54:41;;;;;;;7.60;3.10;;;;;;;20.11;58.33;99456.06;78934;1304;3013029;-62
2023/08/26 00:57:08;;;;;;;8.00;3.40;;;;;;;20.09;58.49;99452.92;78814;1307;3011882;-66
2023/08/26 00:59:36;;;;;;;7.40;3.50;;;;;;;20.09;58.18;99452.52;77672;1306;3028777;-62
2023/08/26 01:02:03;;;;;;;7.30;3.40;;;;;;;20.10;58.01;99454.63;78826;1307;3013408;-63
2023/08/26 01:04:31;;;;;;;6.60;3.10;;;;;;;20.07;58.20;99460.58;78802;1304;3011540;-66
2023/08/26 01:06:59;;;;;;;6.80;3.00;;;;;;;20.06;58.07;99459.13;77670;1307;3049543;-65
2023/08/26 01:09:25;;;;;;;8.20;2.90;;;;;;;20.07;57.96;99462.38;78934;1305;3013478;-67
2023/08/26 01:12:17;;;;;;;7.80;3.50;;;;;;;20.08;57.99;99462.81;78901;1304;3011677;-67
2023/08/26 01:14:51;;;;;;;6.30;2.90;;;;;;;20.06;58.10;99461.42;77714;1307;3052738;-66
2023/08/26 01:17:18;;;;;;;7.10;2.60;;;;;;;20.06;58.02;99460.52;78943;1302;3013577;-67
2023/08/26 01:19:45;;;;;;;8.00;2.90;;;;;;;20.07;57.78;99452.91;77638;1307;3050808;-65
2023/08/26 01:22:12;;;;;;;6.30;2.40;;;;;;;20.08;57.75;99451.64;78811;1304;3019020;-64
2023/08/26 01:24:42;;;;;;;4.10;2.70;;;;;;;20.09;58.09;99445.82;78922;1307;3011492;-63
2023/08/26 01:27:09;;;;;;;5.10;2.90;;;;;;;20.08;58.32;99444.86;77729;1307;3050683;-66
2023/08/26 01:29:36;;;;;;;5.40;2.90;;;;;;;20.06;58.17;99446.70;78952;1307;3012966;-64
2023/08/26 01:32:17;;;;;;;5.30;3.00;;;;;;;20.07;57.94;99447.11;78968;1304;3011513;-64
2023/08/26 01:34:56;;;;;;;4.50;2.60;;;;;;;20.09;57.61;99456.10;77568;1309;3050455;-65
2023/08/26 01:37:25;;;;;;;7.00;2.70;;;;;;;20.07;57.99;99465.34;77724;1307;3056776;-64
2023/08/26 01:39:53;;;;;;;5.30;3.20;;;;;;;20.05;58.27;99465.07;79180;1303;3013366;-65
2023/08/26 01:42:23;;;;;;;6.50;3.10;;;;;;;20.05;58.14;99462.73;78841;1307;3012888;-64
2023/08/26 01:44:51;;;;;;;11.30;3.30;;;;;;;20.02;58.55;99465.77;77688;1307;3053171;-65
2023/08/26 01:47:17;;;;;;;5.20;2.90;;;;;;;19.98;58.84;99466.33;78891;1307;3013669;-63
2023/08/26 01:49:44;;;;;;;11.30;3.70;;;;;;;19.95;59.18;99466.81;78792;1307;3013258;-65
2023/08/26 01:52:12;;;;;;;9.20;3.60;;;;;;;19.87;58.87;99464.51;77763;1307;3025746;-66
2023/08/26 01:54:38;;;;;;;7.40;3.00;;;;;;;19.84;58.85;99467.54;78792;1304;3013145;-64
2023/08/26 01:57:06;;;;;;;6.90;2.70;;;;;;;19.85;58.56;99468.72;78805;1303;3013030;-62
2023/08/26 01:59:34;;;;;;;6.00;2.90;;;;;;;19.85;58.75;99470.05;77797;1307;3026905;-63
2023/08/26 02:02:00;;;;;;;7.50;2.90;;;;;;;19.84;59.11;99467.87;78968;1306;3013095;-63
2023/08/26 02:04:27;;;;;;;6.00;3.00;;;;;;;19.79;59.25;99470.45;78863;1304;3011709;-64
2023/08/26 02:06:55;;;;;;;8.30;3.10;;;;;;;19.79;58.94;99473.84;77722;1307;3028278;-63
2023/08/26 02:09:23;;;;;;;5.60;3.10;;;;;;;19.78;59.08;99472.66;76983;1304;5875379;-63
2023/08/26 02:11:50;;;;;;;9.10;3.10;;;;;;;19.79;58.75;99472.60;78797;1307;3011480;-63
2023/08/26 02:14:19;;;;;;;5.60;3.00;;;;;;;19.79;58.68;99473.81;77723;1307;3052388;-64
2023/08/26 02:16:45;;;;;;;6.60;3.40;;;;;;;19.78;58.93;99473.17;78821;1307;3013505;-66
2023/08/26 02:19:12;;;;;;;4.80;3.10;;;;;;;19.74;59.17;99474.55;78919;1304;3011754;-62
2023/08/26 02:21:39;;;;;;;5.50;3.50;;;;;;;19.71;58.93;99473.80;77724;1307;3026809;-64
2023/08/26 02:24:07;;;;;;;9.30;3.00;;;;;;;19.67;59.06;99472.55;78833;1305;3011896;-65
2023/08/26 02:26:36;;;;;;;8.20;3.00;;;;;;;19.66;58.54;99472.78;78948;1304;3011514;-65
2023/08/26 02:29:04;;;;;;;7.20;3.40;;;;;;;19.64;58.43;99476.23;77680;1307;3052138;-67
2023/08/26 02:31:31;;;;;;;12.60;3.10;;;;;;;19.62;58.60;99475.71;79053;1307;3013151;-65
2023/08/26 02:33:58;;;;;;;8.50;3.50;;;;;;;19.61;58.66;99477.02;78963;1304;3011903;-65
2023/08/26 02:36:26;;;;;;;5.40;4.00;;;;;;;19.59;58.58;99482.74;77885;1306;3057021;-64
2023/08/26 02:38:53;;;;;;;8.20;4.50;;;;;;;19.55;58.95;99479.40;78898;1307;3013407;-62
2023/08/26 02:41:19;;;;;;;8.90;4.30;;;;;;;19.54;58.66;99476.45;78962;1303;3011735;-63
2023/08/26 02:43:47;;;;;;;16.60;5.00;;;;;;;19.53;58.53;99481.40;77709;1316;3029784;-63
2023/08/26 02:46:14;;;;;;;9.90;4.30;;;;;;;19.54;58.29;99483.39;79023;1304;3018408;-62
2023/08/26 02:48:40;;;;;;;10.50;4.20;;;;;;;19.55;58.22;99484.52;78913;1306;3011593;-65
2023/08/26 02:51:08;;;;;;;9.50;4.00;;;;;;;19.53;58.27;99483.17;77744;1306;3026604;-65
2023/08/26 02:53:35;;;;;;;9.20;5.20;;;;;;;19.50;58.48;99485.94;78917;1306;3013581;-66
2023/08/26 02:56:01;;;;;;;9.80;4.20;;;;;;;19.49;58.30;99484.42;78850;1304;3011591;-62
2023/08/26 02:58:30;;;;;;;16.10;4.60;;;;;;;19.50;58.27;99488.23;77722;1317;3026819;-62
2023/08/26 03:01:00;;;;;;;11.00;4.50;;;;;;;19.51;58.16;99483.20;78889;1305;3018881;-65
2023/08/26 03:03:28;;;;;;;12.60;5.30;;;;;;;19.51;58.12;99483.65;77683;1307;3051472;-63
2023/08/26 03:05:57;;;;;;;11.70;4.80;;;;;;;19.50;58.25;99482.18;79033;1304;3013046;-63
2023/08/26 03:08:27;;;;;;;8.70;4.50;;;;;;;19.51;57.79;99483.92;78427;1304;3011555;-64
2023/08/26 03:10:59;;;;;;;13.70;5.00;;;;;;;19.49;57.65;99484.96;78907;1304;3012921;-64
2023/08/26 03:13:27;;;;;;;10.90;5.30;;;;;;;19.50;57.35;99485.38;77541;1309;3054230;-69
2023/08/26 03:15:53;;;;;;;19.60;5.60;;;;;;;19.52;57.59;99483.98;78911;1307;3013159;-65
2023/08/26 03:18:20;;;;;;;12.70;5.60;;;;;;;19.53;57.58;99488.00;79024;1303;3011787;-64
2023/08/26 03:20:48;;;;;;;13.00;5.70;;;;;;;19.52;57.41;99490.16;77630;1303;3026060;-66
2023/08/26 03:23:15;;;;;;;15.00;6.00;;;;;;;19.55;57.28;99490.09;78929;1306;3013365;-66
2023/08/26 03:25:46;;;;;;;17.90;5.60;;;;;;;19.51;57.44;99491.66;78348;1303;3013305;-64
2023/08/26 03:28:13;;;;;;;20.10;6.60;;;;;;;19.51;56.86;99495.78;78962;1306;3013371;-68
2023/08/26 03:33:15;;;;;;;17.90;6.90;;;;;;;19.59;56.79;99494.80;80423;1295;3013013;-64
2023/08/26 03:35:41;;;;;;;21.20;7.70;;;;;;;19.63;56.88;99496.03;79504;1308;3013616;-64
2023/08/26 03:38:08;;;;;;;34.20;9.00;;;;;;;19.64;56.57;99500.17;79409;1298;3011687;-64
2023/08/26 03:40:40;;;;;;;28.90;9.60;;;;;;;19.69;56.65;99501.16;78220;1295;3028953;-64
2023/08/26 03:43:07;;;;;;;32.40;9.30;;;;;;;19.72;56.93;99507.44;79535;1298;3011668;-63
2023/08/26 03:45:34;;;;;;;23.80;9.40;;;;;;;19.78;56.96;99507.13;75634;1298;3050540;-63
2023/08/26 03:48:01;;;;;;;30.20;10.10;;;;;;;19.79;57.13;99504.25;79589;1293;3018554;-62
2023/08/26 03:50:27;;;;;;;27.10;10.40;;;;;;;19.79;57.23;99508.33;79537;1298;3013172;-64
2023/08/26 03:52:56;;;;;;;26.60;9.70;;;;;;;19.78;57.04;99505.34;78411;1298;3028892;-62
2023/08/26 03:55:22;;;;;;;31.10;9.00;;;;;;;19.80;56.88;99510.90;79399;1301;3013429;-62
2023/08/26 03:57:49;;;;;;;24.60;8.90;;;;;;;19.82;57.14;99510.93;79508;1297;3011458;-62
2023/08/26 04:00:17;;;;;;;22.50;7.80;;;;;;;19.84;56.89;99511.23;78323;1297;3051256;-62
2023/08/26 04:02:45;;;;;;;19.90;8.00;;;;;;;19.89;56.83;99510.70;79493;1293;3012768;-62
2023/08/26 04:05:13;;;;;;;20.10;7.40;;;;;;;19.96;56.89;99516.64;79348;1295;3011741;-62
2023/08/26 04:07:41;;;;;;;22.60;8.10;;;;;;;19.99;56.79;99514.73;78084;1301;3051086;-63
2023/08/26 04:10:08;;;;;;;25.00;7.90;;;;;;;19.98;57.06;99513.06;79308;1309;3020680;-64
2023/08/26 04:12:34;;;;;;;22.00;8.00;;;;;;;19.96;57.04;99512.04;79530;1296;3013567;-63
2023/08/26 04:15:04;;;;;;;20.90;7.40;;;;;;;20.00;56.76;99512.19;78456;1294;3028217;-67
2023/08/26 04:17:31;;;;;;;19.00;7.60;;;;;;;20.01;57.09;99505.65;79606;1292;3012754;-69
2023/08/26 04:20:00;;;;;;;22.00;7.10;;;;;;;20.02;56.74;99506.60;79284;1297;3013080;-66
2023/08/26 04:22:27;;;;;;;23.60;8.20;;;;;;;20.01;57.03;99500.46;79643;1292;3018492;-67
2023/08/26 04:24:55;;;;;;;24.80;8.20;;;;;;;20.00;57.27;99496.92;79700;1298;3011738;-68
2023/08/26 04:27:23;;;;;;;25.70;8.40;;;;;;;20.03;57.42;99502.27;78465;1301;3052145;-64
2023/08/26 04:29:49;;;;;;;20.50;7.80;;;;;;;20.05;57.55;99502.79;79474;1299;3015338;-62
2023/08/26 04:32:17;;;;;;;16.10;8.40;;;;;;;20.11;57.60;99502.11;79488;1292;3013253;-64
2023/08/26 04:34:45;;;;;;;23.80;9.00;;;;;;;20.16;57.70;99509.02;78344;1298;3049812;-64
2023/08/26 04:37:12;;;;;;;25.10;9.40;;;;;;;20.21;57.54;99509.38;79565;1298;3013337;-65
2023/08/26 04:39:38;;;;;;;21.50;8.40;;;;;;;20.26;57.58;99503.83;79454;1297;3013241;-63
2023/08/26 04:42:07;;;;;;;21.00;9.00;;;;;;;20.34;57.71;99509.29;78264;1298;3028303;-65
2023/08/26 04:44:34;;;;;;;17.70;7.60;;;;;;;20.40;57.79;99509.43;79410;1294;3014280;-66
2023/08/26 04:47:00;;;;;;;21.40;7.90;;;;;;;20.45;57.41;99510.27;79512;1296;3011848;-66
2023/08/26 04:49:29;;;;;;;18.50;7.60;;;;;;;20.49;57.71;99508.66;78472;1298;3049477;-62
2023/08/26 04:51:55;;;;;;;19.50;8.80;;;;;;;20.56;57.61;99505.95;79583;1298;3013522;-64
2023/08/26 04:54:22;;;;;;;19.70;8.10;;;;;;;20.62;57.56;99507.65;79360;1292;3011812;-64
2023/08/26 04:56:50;;;;;;;21.70;6.90;;;;;;;20.66;57.47;99508.73;78473;1298;3024909;-65
2023/08/26 04:59:17;;;;;;;17.60;7.30;;;;;;;20.70;57.13;99511.93;79587;1297;3014597;-63
2023/08/26 05:01:44;;;;;;;17.10;7.00;;;;;;;20.76;56.81;99512.73;79593;1295;3012739;-67
2023/08/26 05:04:13;;;;;;;16.20;6.70;;;;;;;20.81;56.88;99514.41;78534;1295;3048274;-64
2023/08/26 05:06:39;;;;;;;19.60;7.30;;;;;;;20.89;57.00;99515.15;79540;1293;3013129;-64
2023/08/26 05:09:06;;;;;;;19.10;6.90;;;;;;;20.97;56.82;99512.21;79415;1293;3011619;-64
2023/08/26 05:11:34;;;;;;;15.40;6.50;;;;;;;21.06;56.66;99514.66;78299;1308;3025927;-65
2023/08/26 05:14:00;;;;;;;20.50;8.10;;;;;;;21.11;56.96;99516.95;79518;1295;3013536;-66
2023/08/26 05:16:27;;;;;;;16.70;6.90;;;;;;;21.16;56.58;99519.85;79688;1301;3013547;-64
2023/08/26 05:18:54;;;;;;;14.40;6.50;;;;;;;21.21;56.11;99517.14;78397;1293;3026006;-64
2023/08/26 05:21:21;;;;;;;13.90;6.80;;;;;;;21.29;56.05;99514.14;79708;1295;3013775;-66
2023/08/26 05:23:47;;;;;;;14.60;6.50;;;;;;;21.39;55.85;99519.41;79641;1298;3011568;-64
2023/08/26 05:26:15;;;;;;;17.00;7.10;;;;;;;21.47;55.77;99519.42;78404;1294;3024949;-66
2023/08/26 05:28:42;;;;;;;17.80;6.80;;;;;;;21.56;55.86;99517.69;79762;1293;3013207;-65
2023/08/26 05:31:09;;;;;;;18.80;6.50;;;;;;;21.62;55.91;99522.14;79754;1295;3013074;-65
2023/08/26 05:33:37;;;;;;;15.80;7.30;;;;;;;21.68;55.53;99518.94;78359;1293;3048159;-62
2023/08/26 05:36:04;;;;;;;18.80;7.20;;;;;;;21.76;55.65;99520.13;79678;1298;3013463;-63
2023/08/26 05:38:32;;;;;;;14.40;7.00;;;;;;;21.84;55.45;99516.44;79759;1295;3011574;-64
2023/08/26 05:40:59;;;;;;;11.70;6.70;;;;;;;21.91;55.15;99507.98;78432;1298;3051812;-64
2023/08/26 05:43:29;;;;;;;14.90;6.60;;;;;;;22.01;54.92;99511.94;79867;1292;3012848;-63
2023/08/26 05:45:59;;;;;;;17.50;6.20;;;;;;;22.10;54.57;99507.56;79275;1298;3011825;-65
2023/08/26 05:48:25;;;;;;;16.80;6.30;;;;;;;22.18;54.39;99504.82;79531;1299;3013267;-61
2023/08/26 05:50:52;;;;;;;17.40;6.70;;;;;;;22.26;54.33;99508.56;79377;1298;3011527;-64
2023/08/26 05:53:21;;;;;;;13.10;6.00;;;;;;;22.39;54.46;99514.50;78549;1298;3048424;-63
2023/08/26 05:55:48;;;;;;;20.10;7.10;;;;;;;22.51;54.44;99518.05;79819;1295;3018950;-65
2023/08/26 05:58:14;;;;;;;16.50;7.70;;;;;;;22.60;54.58;99519.64;79556;1297;3011530;-65
2023/08/26 06:00:42;;;;;;;16.00;6.80;;;;;;;22.68;54.59;99523.45;78380;1297;3028708;-63
2023/08/26 06:03:08;;;;;;;19.00;7.20;;;;;;;22.75;54.14;99531.02;79430;1295;3021247;-67
2023/08/26 06:05:35;;;;;;;15.40;6.30;;;;;;;22.85;53.91;99525.88;79654;1294;3011820;-69
2023/08/26 06:08:05;;;;;;;17.60;6.90;;;;;;;22.97;53.47;99526.09;78546;1293;3025369;-65
2023/08/26 06:10:32;;;;;;;14.30;6.50;;;;;;;23.08;53.15;99521.70;79571;1298;3011838;-64
2023/08/26 06:12:59;;;;;;;11.20;5.60;;;;;;;23.15;52.84;99520.34;80009;1297;3011610;-66
2023/08/26 06:15:28;;;;;;;20.00;6.50;;;;;;;23.26;52.72;99524.80;78821;1295;3050624;-65
2023/08/26 06:17:54;;;;;;;19.50;6.40;;;;;;;23.37;52.87;99526.16;79855;1295;3013558;-67
2023/08/26 06:20:24;;;;;;;15.40;6.20;;;;;;;23.47;52.41;99526.65;79932;1293;3011668;-67
2023/08/26 06:22:52;;;;;;;16.10;6.20;;;;;;;23.57;52.58;99528.13;78442;1295;3049663;-65
2023/08/26 06:25:20;;;;;;;17.20;6.70;;;;;;;23.66;52.50;99530.20;79474;1299;3013722;-64
2023/08/26 06:27:47;;;;;;;21.90;6.30;;;;;;;23.75;51.74;99529.17;79873;1298;3011786;-65
2023/08/26 06:30:15;;;;;;;14.10;5.70;;;;;;;23.83;51.46;99528.55;78284;1293;3051360;-68
2023/08/26 06:32:42;;;;;;;14.50;5.20;;;;;;;23.91;50.84;99522.69;79639;1292;3012929;-72
2023/08/26 06:35:09;;;;;;;13.50;5.30;;;;;;;24.00;49.63;99520.95;79583;1295;3013234;-65
2023/08/26 06:37:37;;;;;;;13.20;5.20;;;;;;;24.08;49.88;99523.02;78332;1295;3048738;-64
2023/08/26 06:40:05;;;;;;;10.10;5.00;;;;;;;24.18;49.77;99527.23;79632;1298;3013241;-63
2023/08/26 06:42:32;;;;;;;12.40;5.00;;;;;;;24.29;49.11;99530.41;79647;1295;3012685;-66
2023/08/26 06:45:03;;;;;;;9.30;4.70;;;;;;;24.39;48.29;99526.61;78553;1298;3050620;-71
2023/08/26 06:47:30;;;;;;;8.30;4.20;;;;;;;24.46;48.00;99530.16;79591;1295;3013528;-63
2023/08/26 06:49:57;;;;;;;7.40;4.50;;;;;;;24.55;48.03;99529.58;79641;1295;3013173;-65
2023/08/26 06:52:27;;;;;;;12.20;3.90;;;;;;;24.61;46.68;99533.13;78474;1298;3050826;-65
2023/08/26 06:54:54;;;;;;;12.00;4.10;;;;;;;24.71;46.33;99536.24;79570;1299;3013648;-64
2023/08/26 06:57:20;;;;;;;8.00;3.60;;;;;;;24.80;45.63;99539.14;79435;1301;3012976;-67
2023/08/26 06:59:48;;;;;;;8.50;4.00;;;;;;;24.88;45.37;99537.81;78362;1298;3050286;-71
2023/08/26 07:02:15;;;;;;;10.10;4.80;;;;;;;24.89;45.39;99532.69;79919;1295;3013031;-65
2023/08/26 07:04:43;;;;;;;10.60;4.40;;;;;;;24.99;45.80;99536.17;80031;1293;3011453;-71
2023/08/26 07:07:14;;;;;;;9.60;3.90;;;;;;;25.08;45.34;99532.24;78700;1297;3049122;-66
2023/08/26 07:09:40;;;;;;;16.70;4.50;;;;;;;25.10;45.54;99533.53;79675;1298;3012191;-68
2023/08/26 07:12:09;;;;;;;10.20;4.40;;;;;;;25.16;45.73;99536.96;79273;1297;3011651;-67
2023/08/26 07:14:36;;;;;;;11.70;4.70;;;;;;;25.21;45.94;99532.64;79803;1298;3013727;-68
2023/08/26 07:17:02;;;;;;;12.20;4.30;;;;;;;25.29;45.79;99538.08;79904;1294;3011647;-72
2023/08/26 07:19:30;;;;;;;12.10;5.00;;;;;;;25.34;45.06;99533.59;78469;1298;3028918;-70
2023/08/26 07:21:57;;;;;;;21.50;5.10;;;;;;;25.36;45.40;99535.67;79870;1292;3019001;-68
2023/08/26 07:24:23;;;;;;;14.90;4.20;;;;;;;25.44;45.13;99536.48;79713;1297;3012782;-68
2023/08/26 07:26:51;;;;;;;11.00;3.90;;;;;;;25.61;44.76;99533.30;78477;1295;3026372;-71
2023/08/26 07:29:18;;;;;;;10.90;4.20;;;;;;;25.76;44.57;99535.76;79725;1297;3018327;-70
2023/08/26 07:31:45;;;;;;;12.10;4.20;;;;;;;25.85;44.24;99530.75;79706;1298;3013294;-75
2023/08/26 07:34:13;;;;;;;11.40;4.70;;;;;;;25.87;44.30;99536.45;78496;1295;3026005;-70
2023/08/26 07:36:47;;;;;;;16.10;4.60;;;;;;;25.89;44.24;99534.52;79807;1292;3012863;-69
2023/08/26 07:39:18;;;;;;;11.00;4.40;;;;;;;26.01;44.05;99537.05;78325;1299;3051255;-73
2023/08/26 07:41:45;;;;;;;10.60;4.40;;;;;;;26.11;43.60;99537.05;79835;1296;3016127;-69
2023/08/26 07:44:12;;;;;;;11.00;4.50;;;;;;;26.16;43.40;99536.46;79723;1297;3011655;-69
2023/08/26 07:46:40;;;;;;;16.00;4.80;;;;;;;26.18;43.15;99534.88;78653;1297;3056211;-64
2023/08/26 07:49:06;;;;;;;10.90;4.20;;;;;;;26.28;43.20;99529.49;79886;1292;3019354;-71
2023/08/26 07:51:33;;;;;;;13.90;4.60;;;;;;;26.38;42.85;99529.00;80190;1295;3011665;-70
2023/08/26 07:54:01;;;;;;;8.00;3.70;;;;;;;26.47;42.70;99532.89;78463;1297;3025717;-67
2023/08/26 07:56:27;;;;;;;9.10;3.60;;;;;;;26.47;42.36;99538.30;79759;1297;3015522;-67
2023/08/26 07:58:54;;;;;;;7.40;3.20;;;;;;;26.53;41.20;99535.21;79756;1296;3011534;-68
2023/08/26 08:01:21;;;;;;;14.10;3.50;;;;;;;26.67;40.95;99534.15;78447;1293;3027129;-69
2023/08/26 08:03:48;;;;;;;10.70;3.40;;;;;;;26.79;40.36;99531.40;79680;1294;3013589;-64
2023/08/26 08:06:14;;;;;;;15.40;4.60;;;;;;;26.85;40.51;99529.25;79772;1295;3013063;-64
2023/08/26 08:08:42;;;;;;;13.30;3.60;;;;;;;26.93;40.61;99524.90;78500;1297;3028195;-68
2023/08/26 08:11:09;;;;;;;6.90;3.60;;;;;;;26.96;40.09;99526.52;79806;1296;3013697;-67
2023/08/26 08:13:35;;;;;;;10.40;3.00;;;;;;;27.00;40.11;99525.10;80122;1293;3011631;-66
2023/08/26 08:16:03;;;;;;;4.60;2.30;;;;;;;27.08;38.96;99520.23;78649;1292;3025379;-67
2023/08/26 08:18:29;;;;;;;9.20;2.30;;;;;;;27.19;38.29;99516.53;79866;1297;3012880;-67
2023/08/26 08:20:56;;;;;;;7.90;2.50;;;;;;;27.23;37.29;99518.52;79766;1294;3011700;-69
2023/08/26 08:23:24;;;;;;;7.00;3.30;;;;;;;27.30;38.38;99513.27;78600;1298;3028156;-67
2023/08/26 08:25:50;;;;;;;7.30;2.70;;;;;;;27.35;38.80;99514.61;80051;1295;3012615;-65
2023/08/26 08:28:17;;;;;;;5.00;2.80;;;;;;;27.41;38.60;99515.65;79834;1298;3011910;-68
2023/08/26 08:30:45;;;;;;;11.10;2.90;;;;;;;27.49;38.30;99513.52;78606;1295;3028331;-68
2023/08/26 08:33:12;;;;;;;6.70;2.70;;;;;;;27.48;38.52;99517.24;79668;1294;3012931;-65
2023/08/26 08:35:38;;;;;;;6.90;2.70;;;;;;;27.46;37.98;99517.70;79735;1292;3013692;-70
2023/08/26 08:38:06;;;;;;;7.50;2.40;;;;;;;27.57;37.68;99513.34;78655;1298;3025914;-67
2023/08/26 08:40:33;;;;;;;7.60;2.30;;;;;;;27.66;37.55;99516.51;79763;1298;3013493;-67
2023/08/26 08:42:59;;;;;;;8.10;2.90;;;;;;;27.70;37.43;99518.52;79764;1292;3011870;-66
2023/08/26 08:45:27;;;;;;;6.90;3.90;;;;;;;27.72;37.51;99517.30;78346;1298;3028312;-64
2023/08/26 08:47:54;;;;;;;8.70;4.20;;;;;;;27.88;36.92;99516.45;79677;1293;3012869;-64
2023/08/26 08:50:21;;;;;;;10.00;3.70;;;;;;;28.03;37.60;99519.34;79566;1294;3011958;-65
2023/08/26 08:52:49;;;;;;;6.10;2.50;;;;;;;28.13;36.86;99515.50;78530;1297;3026153;-64
2023/08/26 08:55:16;;;;;;;4.90;2.40;;;;;;;28.00;36.54;99514.59;79864;1292;3014276;-65
2023/08/26 08:57:42;;;;;;;7.20;2.50;;;;;;;28.02;36.53;99515.19;79729;1293;3011708;-64
2023/08/26 09:00:10;;;;;;;8.80;2.40;;;;;;;28.20;36.26;99509.98;78521;1292;3026374;-63
2023/08/26 09:02:40;;;;;;;8.30;2.50;;;;;;;28.33;35.82;99508.18;79722;1293;3013006;-64
2023/08/26 09:05:09;;;;;;;6.00;2.40;;;;;;;28.40;35.63;99502.88;78609;1295;3049052;-64
2023/08/26 09:07:36;;;;;;;7.30;2.40;;;;;;;28.46;35.34;99500.28;79857;1293;3013452;-63
2023/08/26 09:10:03;;;;;;;6.90;2.40;;;;;;;28.52;34.68;99497.20;79906;1297;3011924;-62
2023/08/26 09:12:31;;;;;;;8.20;2.80;;;;;;;28.70;34.71;99493.66;78478;1298;3050849;-64
2023/08/26 09:14:58;;;;;;;6.80;2.30;;;;;;;28.74;35.18;99494.73;79570;1293;3012914;-63
2023/08/26 09:17:24;;;;;;;8.50;2.40;;;;;;;28.74;34.45;99496.74;79781;1295;3011924;-64
2023/08/26 09:19:53;;;;;;;6.20;2.90;;;;;;;28.80;34.50;99491.86;78336;1297;3027857;-64
2023/08/26 09:22:30;;;;;;;12.40;3.20;;;;;;;28.86;34.87;99491.14;79558;1298;3013639;-62
2023/08/26 09:24:59;;;;;;;5.60;2.20;;;;;;;28.97;34.54;99487.35;78416;1293;3069651;-63
2023/08/26 09:27:26;;;;;;;5.20;2.70;;;;;;;28.93;34.36;99485.91;79703;1292;3012791;-62
2023/08/26 09:29:53;;;;;;;10.20;2.50;;;;;;;29.05;33.93;99487.41;79754;1293;3013775;-62
2023/08/26 09:32:34;;;;;;;7.90;2.50;;;;;;;29.19;33.41;99487.07;78544;1293;3053845;-63
2023/08/26 09:35:13;;;;;;;3.60;2.30;;;;;;;29.27;33.15;99483.14;78385;1296;3049354;-65
2023/08/26 09:37:42;;;;;;;5.90;2.50;;;;;;;29.35;33.07;99484.31;78596;1295;3052684;-65
2023/08/26 09:40:16;;;;;;;5.30;2.70;;;;;;;29.32;33.26;99486.20;79939;1295;3014208;-61
2023/08/26 09:42:44;;;;;;;11.70;8.00;;;;;;;29.37;33.61;99490.05;78550;1297;3051532;-63
2023/08/26 09:45:13;;;;;;;7.60;3.60;;;;;;;29.28;34.01;99488.94;79800;1293;3013650;-66
2023/08/26 09:47:42;;;;;;;6.80;3.70;;;;;;;29.01;33.78;99492.08;79352;1296;3012000;-61
2023/08/26 09:50:10;;;;;;;7.80;3.10;;;;;;;28.97;34.10;99493.39;79639;1297;3018439;-67
2023/08/26 09:52:46;;;;;;;10.60;2.90;;;;;;;29.23;33.93;99492.14;79934;1294;3011641;-62
2023/08/26 09:55:14;;;;;;;4.60;2.60;;;;;;;29.33;33.16;99493.28;78597;1297;3052864;-60
2023/08/26 09:57:41;;;;;;;5.30;2.90;;;;;;;29.51;33.11;99490.23;79718;1296;3013877;-62
2023/08/26 10:00:10;;;;;;;9.40;3.20;;;;;;;29.64;33.02;99487.70;79671;1293;3013673;-63
2023/08/26 10:02:50;;;;;;;6.30;3.10;;;;;;;29.76;33.48;99489.86;78458;1293;3048765;-64
2023/08/26 10:05:20;;;;;;;12.20;3.20;;;;;;;29.95;32.78;99489.86;78636;1295;3053363;-66
2023/08/26 10:07:48;;;;;;;12.00;3.10;;;;;;;30.02;32.29;99486.64;79939;1294;3012982;-66
2023/08/26 10:10:24;;;;;;;7.40;2.90;;;;;;;29.96;32.80;99485.23;79935;1292;3012959;-63
2023/08/26 10:13:03;;;;;;;6.20;2.90;;;;;;;29.73;33.20;99481.64;78532;1296;3069391;-64
2023/08/26 10:15:33;;;;;;;8.40;2.80;;;;;;;29.51;33.60;99482.23;78571;1297;3051661;-62
2023/08/26 10:18:06;;;;;;;5.80;2.50;;;;;;;29.41;33.61;99477.11;79829;1295;3014826;-63
2023/08/26 10:20:35;;;;;;;6.50;2.90;;;;;;;29.33;33.85;99480.16;78324;1292;3052586;-63
2023/08/26 10:23:06;;;;;;;7.60;3.00;;;;;;;29.14;34.01;99482.46;79673;1297;3012852;-63
2023/08/26 10:25:33;;;;;;;6.30;3.10;;;;;;;29.01;33.61;99481.52;78419;1298;3053198;-66
2023/08/26 10:28:03;;;;;;;8.40;2.90;;;;;;;28.93;33.92;99481.05;79475;1298;3018757;-65
2023/08/26 10:30:32;;;;;;;8.50;3.20;;;;;;;28.98;34.16;99479.25;79002;1292;3011920;-66
2023/08/26 10:33:00;;;;;;;13.20;7.90;;;;;;;28.98;33.96;99481.13;79831;1297;3013532;-65
2023/08/26 10:35:27;;;;;;;9.40;4.50;;;;;;;29.05;34.09;99480.54;79419;1295;3013669;-67
2023/08/26 10:38:08;;;;;;;10.60;4.20;;;;;;;29.06;33.75;99482.25;78621;1295;3051291;-65
2023/08/26 10:40:36;;;;;;;9.90;3.20;;;;;;;29.07;33.20;99478.83;78591;1298;3053153;-66
2023/08/26 10:43:05;;;;;;;8.00;2.90;;;;;;;29.13;33.06;99475.65;79768;1298;3019682;-69
2023/08/26 10:45:31;;;;;;;5.40;2.90;;;;;;;29.19;32.86;99477.00;79727;1294;3011844;-63
2023/08/26 10:48:02;;;;;;;7.30;3.40;;;;;;;29.42;32.35;99475.42;78375;1295;3057770;-63
2023/08/26 10:50:29;;;;;;;7.50;2.80;;;;;;;29.75;32.12;99475.31;79507;1297;3013002;-63
2023/08/26 10:52:59;;;;;;;3.50;2.60;;;;;;;29.94;31.77;99473.73;79074;1295;3013025;-64
2023/08/26 10:55:30;;;;;;;8.20;3.10;;;;;;;30.11;31.70;99468.27;79524;1298;3013687;-67
2023/08/26 10:58:07;;;;;;;7.20;3.00;;;;;;;30.33;31.64;99471.32;78366;1298;3053448;-66
2023/08/26 11:00:35;;;;;;;6.70;2.70;;;;;;;30.42;31.31;99467.25;78386;1295;3069434;-63
2023/08/26 11:03:03;;;;;;;5.10;2.50;;;;;;;30.51;31.43;99471.36;79444;1294;3013486;-70
2023/08/26 11:05:30;;;;;;;4.50;2.50;;;;;;;30.62;30.97;99473.65;79808;1295;3013545;-65
2023/08/26 11:08:01;;;;;;;7.70;2.50;;;;;;;30.44;30.78;99472.00;78578;1295;3053886;-65
2023/08/26 11:10:29;;;;;;;5.30;2.30;;;;;;;30.29;31.06;99469.78;79603;1297;3011507;-69
2023/08/26 11:12:57;;;;;;;6.50;2.40;;;;;;;30.27;31.13;99469.17;78575;1294;3026683;-66
2023/08/26 11:15:24;;;;;;;11.90;2.90;;;;;;;30.42;30.70;99469.58;79818;1297;3013335;-67
2023/08/26 11:17:50;;;;;;;4.50;2.50;;;;;;;30.63;30.39;99466.80;79371;1299;3011507;-66
2023/08/26 11:20:18;;;;;;;5.40;2.80;;;;;;;30.91;30.13;99466.20;78307;1300;3029151;-65